<?xml version="1.0" encoding="UTF-8" standalone="no" ?>
<gpx xmlns="http://www.topografix.com/GPX/1/1" xmlns:xsi="http://www.w3.org/2001/XMLSchema-instance" xsi:schemaLocation="http://www.topografix.com/GPX/1/1 http://www.topografix.com/GPX/1/1/gpx.xsd" version="1.1" creator="VisuGPX - https://www.visugpx.com">
  <metadata>
    <name>StAndreEaux_Autour_8-21km</name>
    <desc><![CDATA[gnerando idor:7129608_7129617_7129633_9104519_]]></desc>
  </metadata>
  <trk>
    <name><![CDATA[StAndré_GrandTour_20.2km-7129633]]></name>
    <extensions>
      <line xmlns="http://www.topografix.com/GPX/gpx_style/0/2">
        <color>00FFFF</color>
        <width>4</width>
      </line>
    </extensions>
    <trkseg>
      <trkpt lat="47.31422" lon="-2.31124">
        <ele>20</ele>
        <time>2023-11-12T07:00:44Z</time>
      </trkpt>
      <trkpt lat="47.31382" lon="-2.3117">
        <ele>21</ele>
        <time>2023-11-12T07:01:52Z</time>
      </trkpt>
      <trkpt lat="47.31399" lon="-2.3123">
        <ele>22</ele>
        <time>2023-11-12T07:02:51Z</time>
      </trkpt>
      <trkpt lat="47.31318" lon="-2.31322">
        <ele>21</ele>
        <time>2023-11-12T07:05:07Z</time>
      </trkpt>
      <trkpt lat="47.31382" lon="-2.31352">
        <ele>21</ele>
        <time>2023-11-12T07:06:37Z</time>
      </trkpt>
      <trkpt lat="47.31421" lon="-2.31468">
        <ele>23</ele>
        <time>2023-11-12T07:08:34Z</time>
      </trkpt>
      <trkpt lat="47.31463" lon="-2.31777">
        <ele>24</ele>
        <time>2023-11-12T07:13:19Z</time>
      </trkpt>
      <trkpt lat="47.31439" lon="-2.31888">
        <ele>25</ele>
        <time>2023-11-12T07:15:04Z</time>
      </trkpt>
      <trkpt lat="47.31434" lon="-2.31981">
        <ele>24</ele>
        <time>2023-11-12T07:16:29Z</time>
      </trkpt>
      <trkpt lat="47.31526" lon="-2.32195">
        <ele>27</ele>
        <time>2023-11-12T07:20:18Z</time>
      </trkpt>
      <trkpt lat="47.31455" lon="-2.32277">
        <ele>25</ele>
        <time>2023-11-12T07:22:18Z</time>
      </trkpt>
      <trkpt lat="47.31348" lon="-2.32318">
        <ele>23</ele>
        <time>2023-11-12T07:24:46Z</time>
      </trkpt>
      <trkpt lat="47.31268" lon="-2.32395">
        <ele>23</ele>
        <time>2023-11-12T07:26:53Z</time>
      </trkpt>
      <trkpt lat="47.31181" lon="-2.32455">
        <ele>25</ele>
        <time>2023-11-12T07:29:01Z</time>
      </trkpt>
      <trkpt lat="47.31177" lon="-2.32616">
        <ele>27</ele>
        <time>2023-11-12T07:31:27Z</time>
      </trkpt>
      <trkpt lat="47.31207" lon="-2.32727">
        <ele>29</ele>
        <time>2023-11-12T07:33:15Z</time>
      </trkpt>
      <trkpt lat="47.31277" lon="-2.32779">
        <ele>27</ele>
        <time>2023-11-12T07:35:00Z</time>
      </trkpt>
      <trkpt lat="47.31353" lon="-2.32901">
        <ele>26</ele>
        <time>2023-11-12T07:37:30Z</time>
      </trkpt>
      <trkpt lat="47.31239" lon="-2.33144">
        <ele>31</ele>
        <time>2023-11-12T07:41:57Z</time>
      </trkpt>
      <trkpt lat="47.31431" lon="-2.33294">
        <ele>30</ele>
        <time>2023-11-12T07:46:47Z</time>
      </trkpt>
      <trkpt lat="47.31484" lon="-2.33373">
        <ele>31</ele>
        <time>2023-11-12T07:48:28Z</time>
      </trkpt>
      <trkpt lat="47.31732" lon="-2.33249">
        <ele>27</ele>
        <time>2023-11-12T07:54:17Z</time>
      </trkpt>
      <trkpt lat="47.31762" lon="-2.3333">
        <ele>27</ele>
        <time>2023-11-12T07:55:41Z</time>
      </trkpt>
      <trkpt lat="47.31858" lon="-2.33272">
        <ele>22</ele>
        <time>2023-11-12T07:57:59Z</time>
      </trkpt>
      <trkpt lat="47.31881" lon="-2.33212">
        <ele>20</ele>
        <time>2023-11-12T07:59:01Z</time>
      </trkpt>
      <trkpt lat="47.31882" lon="-2.32796">
        <ele>16</ele>
        <time>2023-11-12T08:05:18Z</time>
      </trkpt>
      <trkpt lat="47.31789" lon="-2.32425">
        <ele>24</ele>
        <time>2023-11-12T08:11:16Z</time>
      </trkpt>
      <trkpt lat="47.31914" lon="-2.32431">
        <ele>16</ele>
        <time>2023-11-12T08:14:02Z</time>
      </trkpt>
      <trkpt lat="47.3193" lon="-2.32476">
        <ele>14</ele>
        <time>2023-11-12T08:14:48Z</time>
      </trkpt>
      <trkpt lat="47.31961" lon="-2.32275">
        <ele>13</ele>
        <time>2023-11-12T08:17:55Z</time>
      </trkpt>
      <trkpt lat="47.32051" lon="-2.32202">
        <ele>9</ele>
        <time>2023-11-12T08:20:12Z</time>
      </trkpt>
      <trkpt lat="47.32201" lon="-2.32122">
        <ele>8</ele>
        <time>2023-11-12T08:23:45Z</time>
      </trkpt>
      <trkpt lat="47.32354" lon="-2.32105">
        <ele>9</ele>
        <time>2023-11-12T08:27:10Z</time>
      </trkpt>
      <trkpt lat="47.32505" lon="-2.32101">
        <ele>9</ele>
        <time>2023-11-12T08:30:31Z</time>
      </trkpt>
      <trkpt lat="47.32589" lon="-2.32107">
        <ele>9</ele>
        <time>2023-11-12T08:32:23Z</time>
      </trkpt>
      <trkpt lat="47.32525" lon="-2.32333">
        <ele>9</ele>
        <time>2023-11-12T08:36:05Z</time>
      </trkpt>
      <trkpt lat="47.32672" lon="-2.32328">
        <ele>7</ele>
        <time>2023-11-12T08:39:21Z</time>
      </trkpt>
      <trkpt lat="47.32834" lon="-2.32414">
        <ele>5</ele>
        <time>2023-11-12T08:43:11Z</time>
      </trkpt>
      <trkpt lat="47.32899" lon="-2.3247">
        <ele>5</ele>
        <time>2023-11-12T08:44:51Z</time>
      </trkpt>
      <trkpt lat="47.32992" lon="-2.32627">
        <ele>3</ele>
        <time>2023-11-12T08:48:00Z</time>
      </trkpt>
      <trkpt lat="47.33024" lon="-2.32644">
        <ele>4</ele>
        <time>2023-11-12T08:48:45Z</time>
      </trkpt>
      <trkpt lat="47.33168" lon="-2.3253">
        <ele>7</ele>
        <time>2023-11-12T08:52:23Z</time>
      </trkpt>
      <trkpt lat="47.33335" lon="-2.32461">
        <ele>6</ele>
        <time>2023-11-12T08:56:15Z</time>
      </trkpt>
      <trkpt lat="47.33532" lon="-2.32309">
        <ele>6</ele>
        <time>2023-11-12T09:01:11Z</time>
      </trkpt>
      <trkpt lat="47.33818" lon="-2.32202">
        <ele>8</ele>
        <time>2023-11-12T09:07:45Z</time>
      </trkpt>
      <trkpt lat="47.34074" lon="-2.3223">
        <ele>8</ele>
        <time>2023-11-12T09:13:28Z</time>
      </trkpt>
      <trkpt lat="47.34158" lon="-2.32582">
        <ele>11</ele>
        <time>2023-11-12T09:19:05Z</time>
      </trkpt>
      <trkpt lat="47.34163" lon="-2.32811">
        <ele>12</ele>
        <time>2023-11-12T09:22:32Z</time>
      </trkpt>
      <trkpt lat="47.34269" lon="-2.32985">
        <ele>6</ele>
        <time>2023-11-12T09:26:04Z</time>
      </trkpt>
      <trkpt lat="47.3427" lon="-2.33051">
        <ele>6</ele>
        <time>2023-11-12T09:27:04Z</time>
      </trkpt>
      <trkpt lat="47.34355" lon="-2.33017">
        <ele>5</ele>
        <time>2023-11-12T09:29:01Z</time>
      </trkpt>
      <trkpt lat="47.34343" lon="-2.32914">
        <ele>9</ele>
        <time>2023-11-12T09:30:36Z</time>
      </trkpt>
      <trkpt lat="47.34455" lon="-2.32837">
        <ele>9</ele>
        <time>2023-11-12T09:33:21Z</time>
      </trkpt>
      <trkpt lat="47.34451" lon="-2.32738">
        <ele>10</ele>
        <time>2023-11-12T09:34:50Z</time>
      </trkpt>
      <trkpt lat="47.34625" lon="-2.32624">
        <ele>7</ele>
        <time>2023-11-12T09:39:04Z</time>
      </trkpt>
      <trkpt lat="47.34778" lon="-2.32195">
        <ele>4</ele>
        <time>2023-11-12T09:46:23Z</time>
      </trkpt>
      <trkpt lat="47.34731" lon="-2.32118">
        <ele>4</ele>
        <time>2023-11-12T09:47:56Z</time>
      </trkpt>
      <trkpt lat="47.34837" lon="-2.3188">
        <ele>-1</ele>
        <time>2023-11-12T09:52:14Z</time>
      </trkpt>
      <trkpt lat="47.3472" lon="-2.31728">
        <ele>-1</ele>
        <time>2023-11-12T09:55:42Z</time>
      </trkpt>
      <trkpt lat="47.34722" lon="-2.31562">
        <ele>-1</ele>
        <time>2023-11-12T09:58:12Z</time>
      </trkpt>
      <trkpt lat="47.34503" lon="-2.31577">
        <ele>1</ele>
        <time>2023-11-12T10:03:05Z</time>
      </trkpt>
      <trkpt lat="47.34273" lon="-2.31382">
        <ele>-2</ele>
        <time>2023-11-12T10:08:58Z</time>
      </trkpt>
      <trkpt lat="47.33926" lon="-2.31122">
        <ele>-1</ele>
        <time>2023-11-12T10:17:38Z</time>
      </trkpt>
      <trkpt lat="47.33553" lon="-2.31309">
        <ele>1</ele>
        <time>2023-11-12T10:26:24Z</time>
      </trkpt>
      <trkpt lat="47.33354" lon="-2.30904">
        <ele>1</ele>
        <time>2023-11-12T10:33:56Z</time>
      </trkpt>
      <trkpt lat="47.33318" lon="-2.30738">
        <ele>-1</ele>
        <time>2023-11-12T10:36:34Z</time>
      </trkpt>
      <trkpt lat="47.33367" lon="-2.30571">
        <ele>1</ele>
        <time>2023-11-12T10:39:18Z</time>
      </trkpt>
      <trkpt lat="47.33334" lon="-2.30408">
        <ele>1</ele>
        <time>2023-11-12T10:41:52Z</time>
      </trkpt>
      <trkpt lat="47.33377" lon="-2.30374">
        <ele>-1</ele>
        <time>2023-11-12T10:42:57Z</time>
      </trkpt>
      <trkpt lat="47.33395" lon="-2.30217">
        <ele>1</ele>
        <time>2023-11-12T10:45:21Z</time>
      </trkpt>
      <trkpt lat="47.33479" lon="-2.29983">
        <ele>1.1</ele>
        <time>2023-11-12T10:49:21Z</time>
      </trkpt>
      <trkpt lat="47.33567" lon="-2.30002">
        <ele>-2</ele>
        <time>2023-11-12T10:51:19Z</time>
      </trkpt>
      <trkpt lat="47.33648" lon="-2.29897">
        <ele>1</ele>
        <time>2023-11-12T10:53:43Z</time>
      </trkpt>
      <trkpt lat="47.33633" lon="-2.29814">
        <ele>1.5</ele>
        <time>2023-11-12T10:55:01Z</time>
      </trkpt>
      <trkpt lat="47.33683" lon="-2.29781">
        <ele>1</ele>
        <time>2023-11-12T10:56:14Z</time>
      </trkpt>
      <trkpt lat="47.33799" lon="-2.29805">
        <ele>1</ele>
        <time>2023-11-12T10:58:50Z</time>
      </trkpt>
      <trkpt lat="47.3387" lon="-2.29788">
        <ele>-1</ele>
        <time>2023-11-12T11:00:26Z</time>
      </trkpt>
      <trkpt lat="47.33911" lon="-2.29489">
        <ele>3</ele>
        <time>2023-11-12T11:05:02Z</time>
      </trkpt>
      <trkpt lat="47.33952" lon="-2.29417">
        <ele>4</ele>
        <time>2023-11-12T11:06:27Z</time>
      </trkpt>
      <trkpt lat="47.33811" lon="-2.29275">
        <ele>5</ele>
        <time>2023-11-12T11:10:15Z</time>
      </trkpt>
      <trkpt lat="47.33831" lon="-2.29118">
        <ele>3</ele>
        <time>2023-11-12T11:12:39Z</time>
      </trkpt>
      <trkpt lat="47.34039" lon="-2.28957">
        <ele>2</ele>
        <time>2023-11-12T11:17:53Z</time>
      </trkpt>
      <trkpt lat="47.34185" lon="-2.28882">
        <ele>2</ele>
        <time>2023-11-12T11:21:19Z</time>
      </trkpt>
      <trkpt lat="47.3418" lon="-2.28689">
        <ele>3</ele>
        <time>2023-11-12T11:24:14Z</time>
      </trkpt>
      <trkpt lat="47.34106" lon="-2.2867">
        <ele>3</ele>
        <time>2023-11-12T11:25:54Z</time>
      </trkpt>
      <trkpt lat="47.34094" lon="-2.28713">
        <ele>3</ele>
        <time>2023-11-12T11:26:36Z</time>
      </trkpt>
      <trkpt lat="47.33987" lon="-2.28681">
        <ele>2</ele>
        <time>2023-11-12T11:29:02Z</time>
      </trkpt>
      <trkpt lat="47.3384" lon="-2.28447">
        <ele>1</ele>
        <time>2023-11-12T11:33:50Z</time>
      </trkpt>
      <trkpt lat="47.33699" lon="-2.28532">
        <ele>1</ele>
        <time>2023-11-12T11:37:14Z</time>
      </trkpt>
      <trkpt lat="47.33536" lon="-2.28236">
        <ele>1</ele>
        <time>2023-11-12T11:42:59Z</time>
      </trkpt>
      <trkpt lat="47.33468" lon="-2.28292">
        <ele>4</ele>
        <time>2023-11-12T11:44:42Z</time>
      </trkpt>
      <trkpt lat="47.33391" lon="-2.27636">
        <ele>2.1</ele>
        <time>2023-11-12T11:54:45Z</time>
      </trkpt>
      <trkpt lat="47.33495" lon="-2.27515">
        <ele>1.5</ele>
        <time>2023-11-12T11:57:41Z</time>
      </trkpt>
      <trkpt lat="47.3342" lon="-2.27129">
        <ele>2</ele>
        <time>2023-11-12T12:03:44Z</time>
      </trkpt>
      <trkpt lat="47.33364" lon="-2.26979">
        <ele>1.2</ele>
        <time>2023-11-12T12:06:19Z</time>
      </trkpt>
      <trkpt lat="47.33187" lon="-2.27">
        <ele>2</ele>
        <time>2023-11-12T12:10:16Z</time>
      </trkpt>
      <trkpt lat="47.33111" lon="-2.27215">
        <ele>1</ele>
        <time>2023-11-12T12:13:56Z</time>
      </trkpt>
      <trkpt lat="47.32951" lon="-2.27666">
        <ele>-1</ele>
        <time>2023-11-12T12:21:36Z</time>
      </trkpt>
      <trkpt lat="47.32995" lon="-2.27816">
        <ele>-1</ele>
        <time>2023-11-12T12:24:04Z</time>
      </trkpt>
      <trkpt lat="47.33104" lon="-2.27884">
        <ele>1</ele>
        <time>2023-11-12T12:26:42Z</time>
      </trkpt>
      <trkpt lat="47.32992" lon="-2.28067">
        <ele>1</ele>
        <time>2023-11-12T12:30:25Z</time>
      </trkpt>
      <trkpt lat="47.32777" lon="-2.28174">
        <ele>1.3</ele>
        <time>2023-11-12T12:35:28Z</time>
      </trkpt>
      <trkpt lat="47.32765" lon="-2.28211">
        <ele>1</ele>
        <time>2023-11-12T12:36:05Z</time>
      </trkpt>
      <trkpt lat="47.32694" lon="-2.28266">
        <ele>3</ele>
        <time>2023-11-12T12:37:52Z</time>
      </trkpt>
      <trkpt lat="47.32742" lon="-2.28575">
        <ele>4</ele>
        <time>2023-11-12T12:42:38Z</time>
      </trkpt>
      <trkpt lat="47.328" lon="-2.28805">
        <ele>6</ele>
        <time>2023-11-12T12:46:20Z</time>
      </trkpt>
      <trkpt lat="47.32762" lon="-2.29002">
        <ele>5</ele>
        <time>2023-11-12T12:49:26Z</time>
      </trkpt>
      <trkpt lat="47.32751" lon="-2.29127">
        <ele>6</ele>
        <time>2023-11-12T12:51:20Z</time>
      </trkpt>
      <trkpt lat="47.32787" lon="-2.29211">
        <ele>7</ele>
        <time>2023-11-12T12:52:50Z</time>
      </trkpt>
      <trkpt lat="47.32647" lon="-2.29601">
        <ele>13</ele>
        <time>2023-11-12T12:59:29Z</time>
      </trkpt>
      <trkpt lat="47.32442" lon="-2.29861">
        <ele>16</ele>
        <time>2023-11-12T13:05:30Z</time>
      </trkpt>
      <trkpt lat="47.32384" lon="-2.29912">
        <ele>14</ele>
        <time>2023-11-12T13:07:00Z</time>
      </trkpt>
      <trkpt lat="47.32252" lon="-2.29678">
        <ele>9</ele>
        <time>2023-11-12T13:11:35Z</time>
      </trkpt>
      <trkpt lat="47.32249" lon="-2.2967">
        <ele>9</ele>
        <time>2023-11-12T13:11:43Z</time>
      </trkpt>
      <trkpt lat="47.32255" lon="-2.29672">
        <ele>9</ele>
        <time>2023-11-12T13:11:51Z</time>
      </trkpt>
      <trkpt lat="47.3214" lon="-2.29781">
        <ele>9</ele>
        <time>2023-11-12T13:14:54Z</time>
      </trkpt>
      <trkpt lat="47.3216" lon="-2.29854">
        <ele>10</ele>
        <time>2023-11-12T13:16:05Z</time>
      </trkpt>
      <trkpt lat="47.32061" lon="-2.29904">
        <ele>12</ele>
        <time>2023-11-12T13:18:25Z</time>
      </trkpt>
      <trkpt lat="47.31987" lon="-2.30118">
        <ele>12</ele>
        <time>2023-11-12T13:22:02Z</time>
      </trkpt>
      <trkpt lat="47.31924" lon="-2.3026">
        <ele>13</ele>
        <time>2023-11-12T13:24:36Z</time>
      </trkpt>
      <trkpt lat="47.31746" lon="-2.30412">
        <ele>13</ele>
        <time>2023-11-12T13:29:10Z</time>
      </trkpt>
      <trkpt lat="47.31783" lon="-2.30524">
        <ele>16</ele>
        <time>2023-11-12T13:31:03Z</time>
      </trkpt>
      <trkpt lat="47.31711" lon="-2.30558">
        <ele>16</ele>
        <time>2023-11-12T13:32:44Z</time>
      </trkpt>
      <trkpt lat="47.31722" lon="-2.30644">
        <ele>17</ele>
        <time>2023-11-12T13:34:03Z</time>
      </trkpt>
      <trkpt lat="47.31639" lon="-2.30689">
        <ele>16</ele>
        <time>2023-11-12T13:36:01Z</time>
      </trkpt>
      <trkpt lat="47.31545" lon="-2.30846">
        <ele>17</ele>
        <time>2023-11-12T13:39:10Z</time>
      </trkpt>
      <trkpt lat="47.31471" lon="-2.31026">
        <ele>19</ele>
        <time>2023-11-12T13:42:21Z</time>
      </trkpt>
      <trkpt lat="47.315" lon="-2.31112">
        <ele>19</ele>
        <time>2023-11-12T13:43:48Z</time>
      </trkpt>
      <trkpt lat="47.31421" lon="-2.31157">
        <ele>21</ele>
        <time>2023-11-12T13:45:41Z</time>
      </trkpt>
    </trkseg>
  </trk>
</gpx>